sensor_id;sensor_type;location;lat;lon;timestamp;temperature;humidity
52125;DHT22;38119;52.710;6.398;2023-08-06T00:00:20;15.40;99.90
52125;DHT22;38119;52.710;6.398;2023-08-06T00:02:45;15.30;99.90
52125;DHT22;38119;52.710;6.398;2023-08-06T00:05:11;15.30;99.90
52125;DHT22;38119;52.710;6.398;2023-08-06T00:07:40;15.30;99.90
52125;DHT22;38119;52.710;6.398;2023-08-06T00:10:06;15.30;99.90
52125;DHT22;38119;52.710;6.398;2023-08-06T00:12:32;15.30;99.90
52125;DHT22;38119;52.710;6.398;2023-08-06T00:15:04;15.30;99.90
52125;DHT22;38119;52.710;6.398;2023-08-06T00:17:29;15.30;99.90
52125;DHT22;38119;52.710;6.398;2023-08-06T00:19:55;15.30;99.90
52125;DHT22;38119;52.710;6.398;2023-08-06T00:22:21;15.30;99.90
52125;DHT22;38119;52.710;6.398;2023-08-06T00:24:46;15.30;99.90
52125;DHT22;38119;52.710;6.398;2023-08-06T00:27:12;15.30;99.90
52125;DHT22;38119;52.710;6.398;2023-08-06T00:29:41;15.30;99.90
52125;DHT22;38119;52.710;6.398;2023-08-06T00:32:06;15.20;99.90
52125;DHT22;38119;52.710;6.398;2023-08-06T00:34:35;15.70;99.90
52125;DHT22;38119;52.710;6.398;2023-08-06T00:37:01;15.20;99.90
52125;DHT22;38119;52.710;6.398;2023-08-06T00:39:26;15.20;99.90
52125;DHT22;38119;52.710;6.398;2023-08-06T00:41:52;15.20;99.90
52125;DHT22;38119;52.710;6.398;2023-08-06T00:44:17;15.50;99.90
52125;DHT22;38119;52.710;6.398;2023-08-06T00:46:43;15.20;99.90
52125;DHT22;38119;52.710;6.398;2023-08-06T00:49:09;15.10;99.90
52125;DHT22;38119;52.710;6.398;2023-08-06T00:51:35;15.10;99.90
52125;DHT22;38119;52.710;6.398;2023-08-06T00:54:01;15.10;99.90
52125;DHT22;38119;52.710;6.398;2023-08-06T00:56:28;15.10;99.90
52125;DHT22;38119;52.710;6.398;2023-08-06T00:58:55;15.10;99.90
52125;DHT22;38119;52.710;6.398;2023-08-06T01:01:21;15.10;99.90
52125;DHT22;38119;52.710;6.398;2023-08-06T01:03:46;15.20;99.90
52125;DHT22;38119;52.710;6.398;2023-08-06T01:06:12;15.00;99.90
52125;DHT22;38119;52.710;6.398;2023-08-06T01:08:54;15.00;99.90
52125;DHT22;38119;52.710;6.398;2023-08-06T01:11:40;15.00;99.90
52125;DHT22;38119;52.710;6.398;2023-08-06T01:14:28;15.00;99.90
52125;DHT22;38119;52.710;6.398;2023-08-06T01:16:57;15.00;99.90
52125;DHT22;38119;52.710;6.398;2023-08-06T01:19:24;15.00;99.90
52125;DHT22;38119;52.710;6.398;2023-08-06T01:21:50;15.00;99.90
52125;DHT22;38119;52.710;6.398;2023-08-06T01:24:16;15.00;99.90
52125;DHT22;38119;52.710;6.398;2023-08-06T01:26:45;15.00;99.90
52125;DHT22;38119;52.710;6.398;2023-08-06T01:29:30;15.00;99.90
52125;DHT22;38119;52.710;6.398;2023-08-06T01:31:58;15.00;99.90
52125;DHT22;38119;52.710;6.398;2023-08-06T01:34:27;15.00;99.90
52125;DHT22;38119;52.710;6.398;2023-08-06T01:36:54;15.00;99.90
52125;DHT22;38119;52.710;6.398;2023-08-06T01:39:20;14.90;99.90
52125;DHT22;38119;52.710;6.398;2023-08-06T01:41:47;14.90;99.90
52125;DHT22;38119;52.710;6.398;2023-08-06T01:44:14;14.90;99.90
52125;DHT22;38119;52.710;6.398;2023-08-06T01:46:40;14.90;99.90
52125;DHT22;38119;52.710;6.398;2023-08-06T01:49:06;14.90;99.90
52125;DHT22;38119;52.710;6.398;2023-08-06T01:51:31;15.00;99.90
52125;DHT22;38119;52.710;6.398;2023-08-06T01:53:57;14.90;99.90
52125;DHT22;38119;52.710;6.398;2023-08-06T01:56:22;14.90;99.90
52125;DHT22;38119;52.710;6.398;2023-08-06T01:58:48;15.10;99.90
52125;DHT22;38119;52.710;6.398;2023-08-06T02:01:14;14.90;99.90
52125;DHT22;38119;52.710;6.398;2023-08-06T02:03:39;14.90;99.90
52125;DHT22;38119;52.710;6.398;2023-08-06T02:06:05;14.90;99.90
52125;DHT22;38119;52.710;6.398;2023-08-06T02:08:31;14.90;99.90
52125;DHT22;38119;52.710;6.398;2023-08-06T02:10:56;14.90;99.90
52125;DHT22;38119;52.710;6.398;2023-08-06T02:13:23;14.90;99.90
52125;DHT22;38119;52.710;6.398;2023-08-06T02:15:49;14.90;99.90
52125;DHT22;38119;52.710;6.398;2023-08-06T02:18:15;14.90;99.90
52125;DHT22;38119;52.710;6.398;2023-08-06T02:20:42;14.90;99.90
52125;DHT22;38119;52.710;6.398;2023-08-06T02:23:07;14.80;99.90
52125;DHT22;38119;52.710;6.398;2023-08-06T02:25:35;14.80;99.90
52125;DHT22;38119;52.710;6.398;2023-08-06T02:28:02;14.80;99.90
52125;DHT22;38119;52.710;6.398;2023-08-06T02:30:28;14.80;99.90
52125;DHT22;38119;52.710;6.398;2023-08-06T02:32:54;14.80;99.90
52125;DHT22;38119;52.710;6.398;2023-08-06T02:35:20;14.90;99.90
52125;DHT22;38119;52.710;6.398;2023-08-06T02:37:46;14.90;99.90
52125;DHT22;38119;52.710;6.398;2023-08-06T02:40:11;14.80;99.90
52125;DHT22;38119;52.710;6.398;2023-08-06T02:42:37;14.90;99.90
52125;DHT22;38119;52.710;6.398;2023-08-06T02:45:03;14.80;99.90
52125;DHT22;38119;52.710;6.398;2023-08-06T02:47:29;14.80;99.90
52125;DHT22;38119;52.710;6.398;2023-08-06T02:49:57;14.70;99.90
52125;DHT22;38119;52.710;6.398;2023-08-06T02:52:22;14.90;99.90
52125;DHT22;38119;52.710;6.398;2023-08-06T02:54:48;14.70;99.90
52125;DHT22;38119;52.710;6.398;2023-08-06T02:57:14;14.70;99.90
52125;DHT22;38119;52.710;6.398;2023-08-06T02:59:39;14.70;99.90
52125;DHT22;38119;52.710;6.398;2023-08-06T03:02:05;14.70;99.90
52125;DHT22;38119;52.710;6.398;2023-08-06T03:04:31;14.70;99.90
52125;DHT22;38119;52.710;6.398;2023-08-06T03:06:57;14.60;99.90
52125;DHT22;38119;52.710;6.398;2023-08-06T03:09:23;14.60;99.90
52125;DHT22;38119;52.710;6.398;2023-08-06T03:11:48;14.70;99.90
52125;DHT22;38119;52.710;6.398;2023-08-06T03:14:14;14.90;99.90
52125;DHT22;38119;52.710;6.398;2023-08-06T03:16:40;15.00;99.90
52125;DHT22;38119;52.710;6.398;2023-08-06T03:19:05;14.70;99.90
52125;DHT22;38119;52.710;6.398;2023-08-06T03:21:31;14.70;99.90
52125;DHT22;38119;52.710;6.398;2023-08-06T03:23:57;14.70;99.90
52125;DHT22;38119;52.710;6.398;2023-08-06T03:26:23;14.70;99.90
52125;DHT22;38119;52.710;6.398;2023-08-06T03:28:48;14.80;99.90
52125;DHT22;38119;52.710;6.398;2023-08-06T03:31:14;14.90;99.90
52125;DHT22;38119;52.710;6.398;2023-08-06T03:33:39;15.10;99.90
52125;DHT22;38119;52.710;6.398;2023-08-06T03:36:05;14.70;99.90
52125;DHT22;38119;52.710;6.398;2023-08-06T03:38:33;14.70;99.90
52125;DHT22;38119;52.710;6.398;2023-08-06T03:40:59;15.10;99.90
52125;DHT22;38119;52.710;6.398;2023-08-06T03:43:24;14.70;99.90
52125;DHT22;38119;52.710;6.398;2023-08-06T03:45:52;14.70;99.90
52125;DHT22;38119;52.710;6.398;2023-08-06T03:48:18;14.70;99.90
52125;DHT22;38119;52.710;6.398;2023-08-06T03:50:43;14.70;99.90
52125;DHT22;38119;52.710;6.398;2023-08-06T03:53:09;14.70;99.90
52125;DHT22;38119;52.710;6.398;2023-08-06T03:55:34;14.70;99.90
52125;DHT22;38119;52.710;6.398;2023-08-06T03:58:00;14.70;99.90
52125;DHT22;38119;52.710;6.398;2023-08-06T04:00:26;15.00;99.90
52125;DHT22;38119;52.710;6.398;2023-08-06T04:02:51;14.70;99.90
52125;DHT22;38119;52.710;6.398;2023-08-06T04:05:17;14.70;99.90
52125;DHT22;38119;52.710;6.398;2023-08-06T04:07:43;14.70;99.90
52125;DHT22;38119;52.710;6.398;2023-08-06T04:10:09;14.70;99.90
52125;DHT22;38119;52.710;6.398;2023-08-06T04:12:35;14.60;99.90
52125;DHT22;38119;52.710;6.398;2023-08-06T04:15:03;14.80;99.90
52125;DHT22;38119;52.710;6.398;2023-08-06T04:17:29;14.80;99.90
52125;DHT22;38119;52.710;6.398;2023-08-06T04:19:55;14.90;99.90
52125;DHT22;38119;52.710;6.398;2023-08-06T04:22:25;14.70;99.90
52125;DHT22;38119;52.710;6.398;2023-08-06T04:24:54;14.80;99.90
52125;DHT22;38119;52.710;6.398;2023-08-06T04:27:20;14.80;99.90
52125;DHT22;38119;52.710;6.398;2023-08-06T04:29:45;14.80;99.90
52125;DHT22;38119;52.710;6.398;2023-08-06T04:32:12;14.80;99.90
52125;DHT22;38119;52.710;6.398;2023-08-06T04:34:38;15.20;99.90
52125;DHT22;38119;52.710;6.398;2023-08-06T04:37:04;14.90;99.90
52125;DHT22;38119;52.710;6.398;2023-08-06T04:39:30;14.80;99.90
52125;DHT22;38119;52.710;6.398;2023-08-06T04:41:56;15.30;99.90
52125;DHT22;38119;52.710;6.398;2023-08-06T04:44:25;15.00;99.90
52125;DHT22;38119;52.710;6.398;2023-08-06T04:46:51;14.80;99.90
52125;DHT22;38119;52.710;6.398;2023-08-06T04:49:17;14.80;99.90
52125;DHT22;38119;52.710;6.398;2023-08-06T04:51:43;14.70;99.90
52125;DHT22;38119;52.710;6.398;2023-08-06T04:54:09;14.90;99.90
52125;DHT22;38119;52.710;6.398;2023-08-06T04:56:35;14.70;99.90
52125;DHT22;38119;52.710;6.398;2023-08-06T04:59:00;14.90;99.90
52125;DHT22;38119;52.710;6.398;2023-08-06T05:01:26;14.90;99.90
52125;DHT22;38119;52.710;6.398;2023-08-06T05:03:52;15.10;99.90
52125;DHT22;38119;52.710;6.398;2023-08-06T05:06:17;14.90;99.90
52125;DHT22;38119;52.710;6.398;2023-08-06T05:08:43;14.90;99.90
52125;DHT22;38119;52.710;6.398;2023-08-06T05:11:09;14.90;99.90
52125;DHT22;38119;52.710;6.398;2023-08-06T05:13:35;14.90;99.90
52125;DHT22;38119;52.710;6.398;2023-08-06T05:16:01;15.00;99.90
52125;DHT22;38119;52.710;6.398;2023-08-06T05:18:26;15.00;99.90
52125;DHT22;38119;52.710;6.398;2023-08-06T05:20:58;15.00;99.90
52125;DHT22;38119;52.710;6.398;2023-08-06T05:23:24;15.40;99.90
52125;DHT22;38119;52.710;6.398;2023-08-06T05:25:49;15.10;99.90
52125;DHT22;38119;52.710;6.398;2023-08-06T05:28:15;15.10;99.90
52125;DHT22;38119;52.710;6.398;2023-08-06T05:30:41;15.10;99.90
52125;DHT22;38119;52.710;6.398;2023-08-06T05:33:10;15.00;99.90
52125;DHT22;38119;52.710;6.398;2023-08-06T05:35:36;15.10;99.90
52125;DHT22;38119;52.710;6.398;2023-08-06T05:38:02;14.80;99.90
52125;DHT22;38119;52.710;6.398;2023-08-06T05:40:28;15.10;99.90
52125;DHT22;38119;52.710;6.398;2023-08-06T05:42:54;15.20;99.90
52125;DHT22;38119;52.710;6.398;2023-08-06T05:45:20;15.30;99.90
52125;DHT22;38119;52.710;6.398;2023-08-06T05:47:47;15.20;99.90
52125;DHT22;38119;52.710;6.398;2023-08-06T05:50:13;15.40;99.90
52125;DHT22;38119;52.710;6.398;2023-08-06T05:52:39;15.30;99.90
52125;DHT22;38119;52.710;6.398;2023-08-06T05:55:05;15.30;99.90
52125;DHT22;38119;52.710;6.398;2023-08-06T05:57:31;15.30;99.90
52125;DHT22;38119;52.710;6.398;2023-08-06T05:59:56;15.30;99.90
52125;DHT22;38119;52.710;6.398;2023-08-06T06:02:22;15.30;99.90
52125;DHT22;38119;52.710;6.398;2023-08-06T06:04:48;15.30;99.90
52125;DHT22;38119;52.710;6.398;2023-08-06T06:07:13;15.30;99.90
52125;DHT22;38119;52.710;6.398;2023-08-06T06:09:39;15.30;99.90
52125;DHT22;38119;52.710;6.398;2023-08-06T06:12:06;15.40;99.90
52125;DHT22;38119;52.710;6.398;2023-08-06T06:14:32;15.30;99.90
52125;DHT22;38119;52.710;6.398;2023-08-06T06:16:58;15.40;99.90
52125;DHT22;38119;52.710;6.398;2023-08-06T06:19:24;15.40;99.90
52125;DHT22;38119;52.710;6.398;2023-08-06T06:21:50;15.50;99.90
52125;DHT22;38119;52.710;6.398;2023-08-06T06:24:15;15.50;99.90
52125;DHT22;38119;52.710;6.398;2023-08-06T06:26:41;15.50;99.90
52125;DHT22;38119;52.710;6.398;2023-08-06T06:29:06;15.60;99.90
52125;DHT22;38119;52.710;6.398;2023-08-06T06:31:32;15.50;99.90
52125;DHT22;38119;52.710;6.398;2023-08-06T06:33:58;15.60;99.90
52125;DHT22;38119;52.710;6.398;2023-08-06T06:36:23;15.60;99.90
52125;DHT22;38119;52.710;6.398;2023-08-06T06:38:49;15.60;99.90
52125;DHT22;38119;52.710;6.398;2023-08-06T06:41:15;15.50;99.90
52125;DHT22;38119;52.710;6.398;2023-08-06T06:43:40;15.60;99.90
52125;DHT22;38119;52.710;6.398;2023-08-06T06:46:07;15.50;99.90
52125;DHT22;38119;52.710;6.398;2023-08-06T06:48:33;15.50;99.90
52125;DHT22;38119;52.710;6.398;2023-08-06T06:50:59;15.50;99.90
52125;DHT22;38119;52.710;6.398;2023-08-06T06:53:25;15.50;99.90
52125;DHT22;38119;52.710;6.398;2023-08-06T06:55:54;15.50;99.90
52125;DHT22;38119;52.710;6.398;2023-08-06T06:58:19;15.60;99.90
52125;DHT22;38119;52.710;6.398;2023-08-06T07:00:46;15.60;99.90
52125;DHT22;38119;52.710;6.398;2023-08-06T07:03:12;15.60;99.90
52125;DHT22;38119;52.710;6.398;2023-08-06T07:05:38;15.60;99.90
52125;DHT22;38119;52.710;6.398;2023-08-06T07:08:03;15.60;99.90
52125;DHT22;38119;52.710;6.398;2023-08-06T07:10:29;15.60;99.90
52125;DHT22;38119;52.710;6.398;2023-08-06T07:12:55;15.70;99.90
52125;DHT22;38119;52.710;6.398;2023-08-06T07:15:20;15.60;99.90
52125;DHT22;38119;52.710;6.398;2023-08-06T07:17:46;15.60;99.90
52125;DHT22;38119;52.710;6.398;2023-08-06T07:20:11;15.70;99.90
52125;DHT22;38119;52.710;6.398;2023-08-06T07:22:37;15.70;99.90
52125;DHT22;38119;52.710;6.398;2023-08-06T07:25:03;15.70;99.90
52125;DHT22;38119;52.710;6.398;2023-08-06T07:27:29;15.80;99.90
52125;DHT22;38119;52.710;6.398;2023-08-06T07:29:54;15.80;99.90
52125;DHT22;38119;52.710;6.398;2023-08-06T07:32:20;15.80;99.90
52125;DHT22;38119;52.710;6.398;2023-08-06T07:34:45;15.90;99.90
52125;DHT22;38119;52.710;6.398;2023-08-06T07:37:11;15.90;99.90
52125;DHT22;38119;52.710;6.398;2023-08-06T07:39:37;15.90;99.90
52125;DHT22;38119;52.710;6.398;2023-08-06T07:42:05;15.90;99.90
52125;DHT22;38119;52.710;6.398;2023-08-06T07:44:32;15.90;99.90
52125;DHT22;38119;52.710;6.398;2023-08-06T07:46:58;16.00;99.90
52125;DHT22;38119;52.710;6.398;2023-08-06T07:49:23;16.00;99.90
52125;DHT22;38119;52.710;6.398;2023-08-06T07:51:49;16.00;99.90
52125;DHT22;38119;52.710;6.398;2023-08-06T07:54:17;16.00;99.90
52125;DHT22;38119;52.710;6.398;2023-08-06T07:56:42;16.00;99.90
52125;DHT22;38119;52.710;6.398;2023-08-06T07:59:08;16.00;99.90
52125;DHT22;38119;52.710;6.398;2023-08-06T08:01:34;16.00;99.90
52125;DHT22;38119;52.710;6.398;2023-08-06T08:04:00;16.10;99.90
52125;DHT22;38119;52.710;6.398;2023-08-06T08:06:26;16.10;99.90
52125;DHT22;38119;52.710;6.398;2023-08-06T08:08:52;16.20;99.90
52125;DHT22;38119;52.710;6.398;2023-08-06T08:11:17;16.20;99.90
52125;DHT22;38119;52.710;6.398;2023-08-06T08:13:44;16.20;99.90
52125;DHT22;38119;52.710;6.398;2023-08-06T08:16:10;16.20;99.90
52125;DHT22;38119;52.710;6.398;2023-08-06T08:18:35;16.20;99.90
52125;DHT22;38119;52.710;6.398;2023-08-06T08:21:01;16.30;99.90
52125;DHT22;38119;52.710;6.398;2023-08-06T08:23:26;16.30;99.90
52125;DHT22;38119;52.710;6.398;2023-08-06T08:25:52;16.30;99.90
52125;DHT22;38119;52.710;6.398;2023-08-06T08:28:18;16.30;99.90
52125;DHT22;38119;52.710;6.398;2023-08-06T08:30:44;16.40;99.90
52125;DHT22;38119;52.710;6.398;2023-08-06T08:33:09;16.40;99.90
52125;DHT22;38119;52.710;6.398;2023-08-06T08:35:36;16.50;99.90
52125;DHT22;38119;52.710;6.398;2023-08-06T08:38:02;16.60;99.90
52125;DHT22;38119;52.710;6.398;2023-08-06T08:40:31;16.60;99.90
52125;DHT22;38119;52.710;6.398;2023-08-06T08:42:58;16.70;99.90
52125;DHT22;38119;52.710;6.398;2023-08-06T08:45:28;16.70;99.90
52125;DHT22;38119;52.710;6.398;2023-08-06T08:47:54;16.80;99.90
52125;DHT22;38119;52.710;6.398;2023-08-06T08:50:21;16.90;99.90
52125;DHT22;38119;52.710;6.398;2023-08-06T08:52:47;17.00;99.90
52125;DHT22;38119;52.710;6.398;2023-08-06T08:55:16;17.10;99.90
52125;DHT22;38119;52.710;6.398;2023-08-06T08:57:42;17.10;99.90
52125;DHT22;38119;52.710;6.398;2023-08-06T09:00:09;17.20;99.90
52125;DHT22;38119;52.710;6.398;2023-08-06T09:02:36;17.30;99.90
52125;DHT22;38119;52.710;6.398;2023-08-06T09:05:04;17.30;99.90
52125;DHT22;38119;52.710;6.398;2023-08-06T09:07:42;17.40;99.90
52125;DHT22;38119;52.710;6.398;2023-08-06T09:10:11;17.40;99.90
52125;DHT22;38119;52.710;6.398;2023-08-06T09:12:39;17.50;99.90
52125;DHT22;38119;52.710;6.398;2023-08-06T09:15:05;17.60;99.90
52125;DHT22;38119;52.710;6.398;2023-08-06T09:17:31;17.60;99.90
52125;DHT22;38119;52.710;6.398;2023-08-06T09:19:57;17.70;99.90
52125;DHT22;38119;52.710;6.398;2023-08-06T09:22:23;17.80;99.90
52125;DHT22;38119;52.710;6.398;2023-08-06T09:24:49;17.80;99.90
52125;DHT22;38119;52.710;6.398;2023-08-06T09:27:15;17.90;99.90
52125;DHT22;38119;52.710;6.398;2023-08-06T09:29:44;17.90;99.90
52125;DHT22;38119;52.710;6.398;2023-08-06T09:32:13;18.00;99.90
52125;DHT22;38119;52.710;6.398;2023-08-06T09:34:41;18.00;99.90
52125;DHT22;38119;52.710;6.398;2023-08-06T09:37:09;18.00;99.90
52125;DHT22;38119;52.710;6.398;2023-08-06T09:39:35;18.00;99.90
52125;DHT22;38119;52.710;6.398;2023-08-06T09:42:01;18.10;99.90
52125;DHT22;38119;52.710;6.398;2023-08-06T09:44:29;18.10;99.90
52125;DHT22;38119;52.710;6.398;2023-08-06T09:46:56;18.10;99.90
52125;DHT22;38119;52.710;6.398;2023-08-06T09:49:26;18.20;99.90
52125;DHT22;38119;52.710;6.398;2023-08-06T09:51:53;18.20;99.90
52125;DHT22;38119;52.710;6.398;2023-08-06T09:54:24;18.30;99.90
52125;DHT22;38119;52.710;6.398;2023-08-06T09:56:50;18.30;99.90
52125;DHT22;38119;52.710;6.398;2023-08-06T09:59:17;18.40;99.90
52125;DHT22;38119;52.710;6.398;2023-08-06T10:01:43;18.50;99.90
52125;DHT22;38119;52.710;6.398;2023-08-06T10:04:10;18.50;99.90
52125;DHT22;38119;52.710;6.398;2023-08-06T10:06:37;18.60;99.90
52125;DHT22;38119;52.710;6.398;2023-08-06T10:09:04;18.60;99.90
52125;DHT22;38119;52.710;6.398;2023-08-06T10:11:30;18.70;99.90
52125;DHT22;38119;52.710;6.398;2023-08-06T10:14:11;18.70;99.90
52125;DHT22;38119;52.710;6.398;2023-08-06T10:16:40;18.80;99.90
52125;DHT22;38119;52.710;6.398;2023-08-06T10:19:07;18.80;99.90
52125;DHT22;38119;52.710;6.398;2023-08-06T10:21:34;18.90;99.90
52125;DHT22;38119;52.710;6.398;2023-08-06T10:24:00;19.00;99.90
52125;DHT22;38119;52.710;6.398;2023-08-06T10:26:28;19.10;99.90
52125;DHT22;38119;52.710;6.398;2023-08-06T10:28:54;19.20;99.90
52125;DHT22;38119;52.710;6.398;2023-08-06T10:31:24;19.20;99.90
52125;DHT22;38119;52.710;6.398;2023-08-06T10:34:05;19.30;99.90
52125;DHT22;38119;52.710;6.398;2023-08-06T10:36:32;19.40;99.90
52125;DHT22;38119;52.710;6.398;2023-08-06T10:38:58;19.40;99.90
52125;DHT22;38119;52.710;6.398;2023-08-06T10:41:28;19.50;99.90
52125;DHT22;38119;52.710;6.398;2023-08-06T10:44:07;19.50;99.90
52125;DHT22;38119;52.710;6.398;2023-08-06T10:46:36;19.60;99.90
52125;DHT22;38119;52.710;6.398;2023-08-06T10:49:03;19.60;99.90
52125;DHT22;38119;52.710;6.398;2023-08-06T10:51:30;19.60;99.90
52125;DHT22;38119;52.710;6.398;2023-08-06T10:53:55;19.60;99.90
52125;DHT22;38119;52.710;6.398;2023-08-06T10:56:24;19.70;99.90
52125;DHT22;38119;52.710;6.398;2023-08-06T10:58:59;19.70;99.90
52125;DHT22;38119;52.710;6.398;2023-08-06T11:01:26;19.80;99.90
52125;DHT22;38119;52.710;6.398;2023-08-06T11:03:54;19.90;99.90
52125;DHT22;38119;52.710;6.398;2023-08-06T11:06:21;20.00;99.90
52125;DHT22;38119;52.710;6.398;2023-08-06T11:08:52;20.10;99.90
52125;DHT22;38119;52.710;6.398;2023-08-06T11:11:19;20.10;99.90
52125;DHT22;38119;52.710;6.398;2023-08-06T11:13:49;20.30;99.90
52125;DHT22;38119;52.710;6.398;2023-08-06T11:16:24;20.50;99.90
52125;DHT22;38119;52.710;6.398;2023-08-06T11:18:50;20.70;99.90
52125;DHT22;38119;52.710;6.398;2023-08-06T11:21:20;21.00;99.90
52125;DHT22;38119;52.710;6.398;2023-08-06T11:23:46;21.30;99.90
52125;DHT22;38119;52.710;6.398;2023-08-06T11:26:21;21.60;99.90
52125;DHT22;38119;52.710;6.398;2023-08-06T11:28:49;22.00;99.90
52125;DHT22;38119;52.710;6.398;2023-08-06T11:31:21;22.40;99.90
52125;DHT22;38119;52.710;6.398;2023-08-06T11:33:48;22.80;99.90
52125;DHT22;38119;52.710;6.398;2023-08-06T11:36:13;23.20;99.90
52125;DHT22;38119;52.710;6.398;2023-08-06T11:38:39;23.50;99.90
52125;DHT22;38119;52.710;6.398;2023-08-06T11:41:04;23.90;99.90
52125;DHT22;38119;52.710;6.398;2023-08-06T11:43:31;24.00;99.90
52125;DHT22;38119;52.710;6.398;2023-08-06T11:45:58;24.10;99.90
52125;DHT22;38119;52.710;6.398;2023-08-06T11:48:25;24.10;99.90
52125;DHT22;38119;52.710;6.398;2023-08-06T11:50:53;24.00;99.90
52125;DHT22;38119;52.710;6.398;2023-08-06T11:53:19;23.80;99.90
52125;DHT22;38119;52.710;6.398;2023-08-06T11:55:45;23.60;99.90
52125;DHT22;38119;52.710;6.398;2023-08-06T11:58:11;23.40;99.90
52125;DHT22;38119;52.710;6.398;2023-08-06T12:00:37;23.30;99.90
52125;DHT22;38119;52.710;6.398;2023-08-06T12:03:05;23.40;99.90
52125;DHT22;38119;52.710;6.398;2023-08-06T12:05:31;23.40;99.90
52125;DHT22;38119;52.710;6.398;2023-08-06T12:08:00;23.50;99.90
52125;DHT22;38119;52.710;6.398;2023-08-06T12:10:28;23.50;99.90
52125;DHT22;38119;52.710;6.398;2023-08-06T12:12:54;23.30;99.90
52125;DHT22;38119;52.710;6.398;2023-08-06T12:15:20;23.20;99.90
52125;DHT22;38119;52.710;6.398;2023-08-06T12:17:46;22.90;99.90
52125;DHT22;38119;52.710;6.398;2023-08-06T12:20:12;22.70;99.90
52125;DHT22;38119;52.710;6.398;2023-08-06T12:22:38;22.50;99.90
52125;DHT22;38119;52.710;6.398;2023-08-06T12:25:06;22.30;99.90
52125;DHT22;38119;52.710;6.398;2023-08-06T12:27:36;22.20;99.90
52125;DHT22;38119;52.710;6.398;2023-08-06T12:30:03;22.20;99.90
52125;DHT22;38119;52.710;6.398;2023-08-06T12:32:29;22.00;99.90
52125;DHT22;38119;52.710;6.398;2023-08-06T12:34:54;21.90;99.90
52125;DHT22;38119;52.710;6.398;2023-08-06T12:37:20;21.70;99.90
52125;DHT22;38119;52.710;6.398;2023-08-06T12:39:46;21.40;99.90
52125;DHT22;38119;52.710;6.398;2023-08-06T12:42:12;21.20;99.90
52125;DHT22;38119;52.710;6.398;2023-08-06T12:44:37;21.00;99.90
52125;DHT22;38119;52.710;6.398;2023-08-06T12:47:03;20.80;99.90
52125;DHT22;38119;52.710;6.398;2023-08-06T12:49:29;20.70;99.90
52125;DHT22;38119;52.710;6.398;2023-08-06T12:51:56;20.50;99.90
52125;DHT22;38119;52.710;6.398;2023-08-06T12:54:22;20.40;99.90
52125;DHT22;38119;52.710;6.398;2023-08-06T12:56:48;20.20;99.90
52125;DHT22;38119;52.710;6.398;2023-08-06T12:59:17;20.10;99.90
52125;DHT22;38119;52.710;6.398;2023-08-06T13:01:43;20.00;99.90
52125;DHT22;38119;52.710;6.398;2023-08-06T13:04:09;19.90;99.90
52125;DHT22;38119;52.710;6.398;2023-08-06T13:06:36;19.70;99.90
52125;DHT22;38119;52.710;6.398;2023-08-06T13:09:03;19.70;99.90
52125;DHT22;38119;52.710;6.398;2023-08-06T13:11:30;19.60;99.90
52125;DHT22;38119;52.710;6.398;2023-08-06T13:14:03;19.60;99.90
52125;DHT22;38119;52.710;6.398;2023-08-06T13:16:29;19.50;99.90
52125;DHT22;38119;52.710;6.398;2023-08-06T13:18:54;19.50;99.90
52125;DHT22;38119;52.710;6.398;2023-08-06T13:21:20;19.50;99.90
52125;DHT22;38119;52.710;6.398;2023-08-06T13:23:46;19.40;99.90
52125;DHT22;38119;52.710;6.398;2023-08-06T13:26:13;19.40;99.90
52125;DHT22;38119;52.710;6.398;2023-08-06T13:28:39;19.30;99.90
52125;DHT22;38119;52.710;6.398;2023-08-06T13:31:04;19.40;99.90
52125;DHT22;38119;52.710;6.398;2023-08-06T13:33:30;19.40;99.90
52125;DHT22;38119;52.710;6.398;2023-08-06T13:35:56;19.40;99.90
52125;DHT22;38119;52.710;6.398;2023-08-06T13:38:21;19.50;99.90
52125;DHT22;38119;52.710;6.398;2023-08-06T13:40:48;19.50;99.90
52125;DHT22;38119;52.710;6.398;2023-08-06T13:43:13;19.50;99.90
52125;DHT22;38119;52.710;6.398;2023-08-06T13:45:41;19.50;99.90
52125;DHT22;38119;52.710;6.398;2023-08-06T13:48:06;19.50;99.90
52125;DHT22;38119;52.710;6.398;2023-08-06T13:50:32;19.50;99.90
52125;DHT22;38119;52.710;6.398;2023-08-06T13:52:58;19.40;99.90
52125;DHT22;38119;52.710;6.398;2023-08-06T13:55:24;19.20;99.90
52125;DHT22;38119;52.710;6.398;2023-08-06T13:57:49;19.10;99.90
52125;DHT22;38119;52.710;6.398;2023-08-06T14:00:15;19.00;99.90
52125;DHT22;38119;52.710;6.398;2023-08-06T14:02:41;18.90;99.90
52125;DHT22;38119;52.710;6.398;2023-08-06T14:05:09;18.80;99.90
52125;DHT22;38119;52.710;6.398;2023-08-06T14:07:35;18.70;99.90
52125;DHT22;38119;52.710;6.398;2023-08-06T14:10:00;18.60;99.90
52125;DHT22;38119;52.710;6.398;2023-08-06T14:12:26;18.50;99.90
52125;DHT22;38119;52.710;6.398;2023-08-06T14:14:51;18.40;99.90
52125;DHT22;38119;52.710;6.398;2023-08-06T14:17:17;18.30;99.90
52125;DHT22;38119;52.710;6.398;2023-08-06T14:19:43;18.20;99.90
52125;DHT22;38119;52.710;6.398;2023-08-06T14:22:08;18.10;99.90
52125;DHT22;38119;52.710;6.398;2023-08-06T14:24:34;18.10;99.90
52125;DHT22;38119;52.710;6.398;2023-08-06T14:27:00;18.10;99.90
52125;DHT22;38119;52.710;6.398;2023-08-06T14:29:25;18.00;99.90
52125;DHT22;38119;52.710;6.398;2023-08-06T14:31:51;18.00;99.90
52125;DHT22;38119;52.710;6.398;2023-08-06T14:34:17;18.00;99.90
52125;DHT22;38119;52.710;6.398;2023-08-06T14:36:42;18.00;99.90
52125;DHT22;38119;52.710;6.398;2023-08-06T14:39:08;18.00;99.90
52125;DHT22;38119;52.710;6.398;2023-08-06T14:41:33;17.90;99.90
52125;DHT22;38119;52.710;6.398;2023-08-06T14:43:59;17.90;99.90
52125;DHT22;38119;52.710;6.398;2023-08-06T14:46:25;17.80;99.90
52125;DHT22;38119;52.710;6.398;2023-08-06T14:48:50;17.80;99.90
52125;DHT22;38119;52.710;6.398;2023-08-06T14:51:16;17.70;99.90
52125;DHT22;38119;52.710;6.398;2023-08-06T14:53:44;17.60;99.90
52125;DHT22;38119;52.710;6.398;2023-08-06T14:56:10;17.60;99.90
52125;DHT22;38119;52.710;6.398;2023-08-06T14:58:36;17.50;99.90
52125;DHT22;38119;52.710;6.398;2023-08-06T15:01:01;17.40;99.90
52125;DHT22;38119;52.710;6.398;2023-08-06T15:03:27;17.30;99.90
52125;DHT22;38119;52.710;6.398;2023-08-06T15:05:53;17.30;99.90
52125;DHT22;38119;52.710;6.398;2023-08-06T15:08:19;17.20;99.90
52125;DHT22;38119;52.710;6.398;2023-08-06T15:10:54;17.10;99.90
52125;DHT22;38119;52.710;6.398;2023-08-06T15:13:20;17.00;99.90
52125;DHT22;38119;52.710;6.398;2023-08-06T15:15:49;16.90;99.90
52125;DHT22;38119;52.710;6.398;2023-08-06T15:18:15;16.80;99.90
52125;DHT22;38119;52.710;6.398;2023-08-06T15:20:41;16.80;99.90
52125;DHT22;38119;52.710;6.398;2023-08-06T15:23:07;16.70;99.90
52125;DHT22;38119;52.710;6.398;2023-08-06T15:25:32;16.70;99.90